Time;durP1;ratioP1;P1;durP2;ratioP2;P2;SDS_P1;SDS_P2;PMS_P1;PMS_P2;Temp;Humidity;BMP_temperature;BMP_pressure;BME280_temperature;BME280_humidity;BME280_pressure;Samples;Min_cycle;Max_cycle;Signal;HPM_P1;HPM_P2
2024/03/11 00:01:04;;;;;;;9.53;1.83;;;7.30;99.90;;;;;;5044342;28;20460;-67
2024/03/11 00:03:33;;;;;;;7.00;1.57;;;7.30;99.90;;;;;;5046212;28;20536;-67
2024/03/11 00:06:02;;;;;;;7.07;1.70;;;7.40;99.90;;;;;;5049189;28;20476;-67
2024/03/11 00:08:31;;;;;;;6.97;1.60;;;7.40;99.90;;;;;;5046466;28;20563;-66
2024/03/11 00:11:00;;;;;;;7.93;1.97;;;7.30;99.90;;;;;;5043822;28;21251;-67
2024/03/11 00:13:32;;;;;;;6.60;1.13;;;7.30;99.90;;;;;;5051064;28;20479;-67
2024/03/11 00:16:01;;;;;;;7.30;1.80;;;7.30;99.90;;;;;;5054746;28;20436;-67
2024/03/11 00:18:31;;;;;;;7.53;1.87;;;7.30;99.90;;;;;;5051292;28;20505;-66
2024/03/11 00:20:59;;;;;;;7.07;1.50;;;7.30;99.90;;;;;;5051680;28;20452;-67
2024/03/11 00:23:27;;;;;;;7.93;1.90;;;7.30;99.90;;;;;;5056825;28;20517;-67
2024/03/11 00:25:56;;;;;;;7.63;1.97;;;7.20;99.90;;;;;;5046274;28;20456;-66
2024/03/11 00:28:24;;;;;;;7.63;1.50;;;7.30;99.90;;;;;;5050903;28;20436;-67
2024/03/11 00:30:52;;;;;;;7.50;2.00;;;7.20;99.90;;;;;;5047123;28;20473;-67
2024/03/11 00:33:21;;;;;;;7.30;1.77;;;7.20;99.90;;;;;;5049540;28;20573;-67
2024/03/11 00:35:50;;;;;;;7.17;1.70;;;7.10;99.90;;;;;;5049956;28;20451;-67
2024/03/11 00:38:18;;;;;;;7.00;1.70;;;7.20;99.90;;;;;;5049965;28;20436;-67
2024/03/11 00:40:46;;;;;;;6.97;1.73;;;7.20;99.90;;;;;;5049881;28;20484;-67
2024/03/11 00:43:14;;;;;;;6.93;1.70;;;7.10;99.90;;;;;;5050248;28;20533;-67
2024/03/11 00:45:42;;;;;;;7.33;1.70;;;7.10;99.90;;;;;;5048134;28;20436;-67
2024/03/11 00:48:11;;;;;;;7.20;1.70;;;7.10;99.90;;;;;;5050424;28;20556;-68
2024/03/11 00:50:39;;;;;;;7.07;1.60;;;7.10;99.90;;;;;;5049807;28;20999;-67
2024/03/11 00:53:09;;;;;;;7.80;1.63;;;7.10;99.90;;;;;;5049796;28;20964;-66
2024/03/11 00:55:39;;;;;;;7.70;1.90;;;7.00;99.90;;;;;;5049784;28;20464;-68
2024/03/11 00:58:07;;;;;;;7.70;1.77;;;7.00;99.90;;;;;;5049568;28;20449;-68
2024/03/11 01:00:35;;;;;;;8.00;2.30;;;7.00;99.90;;;;;;5049515;28;20499;-67
2024/03/11 01:03:03;;;;;;;8.07;2.30;;;7.10;99.90;;;;;;5049536;28;20468;-67
2024/03/11 01:05:31;;;;;;;7.20;2.00;;;7.10;99.90;;;;;;5049681;28;20567;-67
2024/03/11 01:08:00;;;;;;;9.47;2.30;;;7.10;99.90;;;;;;5050786;28;20480;-68
2024/03/11 01:10:29;;;;;;;7.93;1.90;;;7.10;99.90;;;;;;5048966;28;20462;-68
2024/03/11 01:12:57;;;;;;;7.50;2.07;;;7.00;99.90;;;;;;5049241;28;20486;-67
2024/03/11 01:15:25;;;;;;;7.63;2.13;;;7.10;99.90;;;;;;5049667;28;20506;-67
2024/03/11 01:17:55;;;;;;;7.57;2.20;;;7.00;99.90;;;;;;5046428;28;21069;-67
2024/03/11 01:20:24;;;;;;;7.57;1.90;;;7.10;99.90;;;;;;5043040;28;20554;-68
2024/03/11 01:22:53;;;;;;;8.40;2.13;;;7.00;99.90;;;;;;5055694;28;20493;-67
2024/03/11 01:25:21;;;;;;;7.90;2.00;;;7.00;99.90;;;;;;5047780;28;20452;-66
2024/03/11 01:27:52;;;;;;;7.70;1.83;;;6.90;99.90;;;;;;5050543;28;20459;-67
2024/03/11 01:30:21;;;;;;;7.67;1.80;;;7.00;99.90;;;;;;5055812;28;20500;-67
2024/03/11 01:32:49;;;;;;;8.23;2.20;;;7.00;99.90;;;;;;5054184;28;20453;-67
2024/03/11 01:35:18;;;;;;;7.33;2.07;;;7.00;99.90;;;;;;5059993;28;20460;-67
2024/03/11 01:37:46;;;;;;;7.87;2.17;;;6.90;99.90;;;;;;5047227;28;20462;-67
2024/03/11 01:40:15;;;;;;;7.77;2.27;;;6.90;99.90;;;;;;5046313;28;20500;-67
2024/03/11 01:42:43;;;;;;;7.10;1.70;;;6.90;99.90;;;;;;5047469;28;20539;-67
2024/03/11 01:45:13;;;;;;;8.73;1.87;;;7.00;99.90;;;;;;5037079;28;20958;-65
2024/03/11 01:47:43;;;;;;;7.50;2.10;;;7.00;99.90;;;;;;5046450;28;20564;-67
2024/03/11 01:50:13;;;;;;;7.00;1.57;;;6.80;99.90;;;;;;5048844;28;20993;-67
2024/03/11 01:52:48;;;;;;;9.07;2.53;;;6.80;99.90;;;;;;5048235;28;20467;-67
2024/03/11 01:55:17;;;;;;;6.90;1.77;;;6.80;99.90;;;;;;5049297;28;20456;-67
2024/03/11 01:57:46;;;;;;;7.10;1.80;;;6.70;99.90;;;;;;5049107;28;20473;-67
2024/03/11 02:00:19;;;;;;;8.07;1.97;;;6.50;99.90;;;;;;5048750;28;21026;-67
2024/03/11 02:02:47;;;;;;;7.10;1.80;;;6.50;99.90;;;;;;5051148;28;20469;-67
2024/03/11 02:05:15;;;;;;;6.93;1.73;;;6.50;99.90;;;;;;5050277;28;20500;-67
2024/03/11 02:07:44;;;;;;;7.47;1.90;;;6.40;99.90;;;;;;5048363;28;20500;-67
2024/03/11 02:10:14;;;;;;;7.70;1.93;;;6.30;99.90;;;;;;5048504;28;20488;-67
2024/03/11 02:12:45;;;;;;;7.67;1.93;;;6.30;99.90;;;;;;5048456;28;20448;-67
2024/03/11 02:15:13;;;;;;;7.33;2.10;;;6.30;99.90;;;;;;5048987;28;20792;-67
2024/03/11 02:17:43;;;;;;;7.43;1.87;;;6.30;99.90;;;;;;5047899;28;20547;-67
2024/03/11 02:20:16;;;;;;;7.40;1.90;;;6.30;99.90;;;;;;5047680;28;20460;-67
2024/03/11 02:22:46;;;;;;;7.67;2.13;;;6.20;99.90;;;;;;5047477;28;21242;-67
2024/03/11 02:25:16;;;;;;;7.60;2.03;;;6.20;99.90;;;;;;5048910;28;20486;-67
2024/03/11 02:27:45;;;;;;;7.70;1.90;;;6.10;99.90;;;;;;5045787;28;20546;-68
2024/03/11 02:30:15;;;;;;;8.07;2.00;;;6.00;99.90;;;;;;5048782;28;21059;-67
2024/03/11 02:32:44;;;;;;;8.30;1.83;;;5.90;99.90;;;;;;5049620;28;20439;-67
2024/03/11 02:35:13;;;;;;;7.33;1.80;;;5.80;99.90;;;;;;5047854;28;20479;-67
2024/03/11 02:37:44;;;;;;;7.13;1.67;;;5.70;99.90;;;;;;5045678;28;20813;-67
2024/03/11 02:40:14;;;;;;;7.00;1.70;;;5.60;99.90;;;;;;5048146;28;20464;-68
2024/03/11 02:42:44;;;;;;;7.90;2.00;;;5.50;99.90;;;;;;5047866;28;20456;-67
2024/03/11 02:45:14;;;;;;;8.57;2.13;;;5.50;99.90;;;;;;5043426;28;20460;-68
2024/03/11 02:47:42;;;;;;;7.30;1.70;;;5.40;99.90;;;;;;5045850;28;20527;-67
2024/03/11 02:50:13;;;;;;;7.80;2.07;;;5.30;99.90;;;;;;5049972;28;20559;-68
2024/03/11 02:52:42;;;;;;;7.90;2.40;;;5.30;99.90;;;;;;5048058;28;20444;-67
2024/03/11 02:55:14;;;;;;;7.27;2.00;;;5.40;99.90;;;;;;5048307;28;20483;-67
2024/03/11 02:57:47;;;;;;;9.03;2.10;;;5.30;99.90;;;;;;5048484;28;21067;-67
2024/03/11 03:00:16;;;;;;;7.50;2.20;;;5.30;99.90;;;;;;5044956;28;20473;-67
2024/03/11 03:02:44;;;;;;;7.77;1.90;;;5.40;99.90;;;;;;5047647;28;20463;-67
2024/03/11 03:05:12;;;;;;;7.57;1.93;;;5.50;99.90;;;;;;5048646;28;20563;-67
2024/03/11 03:07:41;;;;;;;7.07;1.70;;;5.60;99.90;;;;;;5049132;28;20490;-67
2024/03/11 03:10:10;;;;;;;8.80;2.00;;;5.70;99.90;;;;;;5047822;28;20471;-67
2024/03/11 03:12:38;;;;;;;8.97;1.63;;;5.60;99.90;;;;;;5047680;28;20979;-67
2024/03/11 03:15:10;;;;;;;7.47;1.83;;;5.60;99.90;;;;;;5047639;28;20521;-67
2024/03/11 03:17:39;;;;;;;7.70;1.90;;;5.70;99.90;;;;;;5048487;28;20491;-67
2024/03/11 03:20:10;;;;;;;7.70;1.80;;;5.60;99.90;;;;;;5046945;28;20461;-66
2024/03/11 03:22:39;;;;;;;6.97;1.43;;;5.60;99.90;;;;;;5047465;28;20510;-67
2024/03/11 03:25:09;;;;;;;7.90;1.77;;;5.60;99.90;;;;;;5046366;28;20529;-67
2024/03/11 03:27:37;;;;;;;7.40;1.70;;;5.50;99.90;;;;;;5047453;28;20454;-67
2024/03/11 03:30:09;;;;;;;6.90;1.33;;;5.50;99.90;;;;;;5047828;28;20474;-67
2024/03/11 03:32:38;;;;;;;8.07;1.57;;;5.50;99.90;;;;;;5056764;28;20489;-67
2024/03/11 03:35:07;;;;;;;7.30;1.40;;;5.40;99.90;;;;;;5039645;28;20493;-67
2024/03/11 03:37:35;;;;;;;7.10;1.50;;;5.30;99.90;;;;;;5048047;28;20448;-66
2024/03/11 03:40:15;;;;;;;7.03;1.30;;;5.40;99.90;;;;;;5046982;28;20520;-66
2024/03/11 03:42:44;;;;;;;6.97;1.33;;;5.30;99.90;;;;;;5044702;28;20442;-67
2024/03/11 03:45:14;;;;;;;6.97;1.40;;;5.40;99.90;;;;;;5046436;28;20818;-67
2024/03/11 03:47:42;;;;;;;6.60;1.17;;;5.20;99.90;;;;;;5050536;28;20500;-67
2024/03/11 03:50:11;;;;;;;7.47;1.70;;;5.30;99.90;;;;;;5046536;28;20600;-68
2024/03/11 03:52:39;;;;;;;7.30;1.33;;;5.20;99.90;;;;;;5048535;28;20589;-67
2024/03/11 03:55:10;;;;;;;7.53;1.33;;;5.30;99.90;;;;;;5048361;28;20515;-67
2024/03/11 03:57:38;;;;;;;6.97;1.10;;;5.30;99.90;;;;;;5056412;28;21029;-67
2024/03/11 04:00:15;;;;;;;7.33;1.50;;;5.20;99.90;;;;;;5049849;28;20506;-67
2024/03/11 04:02:44;;;;;;;7.27;1.40;;;5.20;99.90;;;;;;5047244;28;20481;-67
2024/03/11 04:05:13;;;;;;;7.13;1.77;;;5.20;99.90;;;;;;5046858;28;20462;-67
2024/03/11 04:07:41;;;;;;;7.23;1.43;;;5.10;99.90;;;;;;5047375;28;20448;-67
2024/03/11 04:10:12;;;;;;;7.83;1.33;;;5.10;99.90;;;;;;5054212;28;20478;-67
2024/03/11 04:12:44;;;;;;;7.00;1.17;;;5.10;99.90;;;;;;5046333;28;20944;-67
2024/03/11 04:15:13;;;;;;;6.90;1.37;;;5.00;99.90;;;;;;5057664;28;20565;-65
2024/03/11 04:17:41;;;;;;;7.33;1.77;;;5.00;99.90;;;;;;5050930;28;20482;-67
2024/03/11 04:20:12;;;;;;;6.70;1.37;;;5.00;99.90;;;;;;5048732;28;20481;-67
2024/03/11 04:22:42;;;;;;;9.10;1.70;;;5.10;99.90;;;;;;5046471;28;20481;-67
2024/03/11 04:25:15;;;;;;;7.80;2.43;;;5.00;99.90;;;;;;5053412;28;20490;-67
2024/03/11 04:27:45;;;;;;;6.73;1.20;;;4.90;99.90;;;;;;5047876;28;20467;-67
2024/03/11 04:30:15;;;;;;;6.70;1.20;;;4.80;99.90;;;;;;5045618;28;21060;-68
2024/03/11 04:32:51;;;;;;;7.23;1.60;;;4.80;99.90;;;;;;5046866;28;20879;-67
2024/03/11 04:35:24;;;;;;;7.37;1.40;;;4.80;99.90;;;;;;5052587;28;20549;-67
2024/03/11 04:37:53;;;;;;;7.00;1.20;;;4.80;99.90;;;;;;5047927;28;20987;-67
2024/03/11 04:40:21;;;;;;;7.10;1.50;;;4.90;99.90;;;;;;5058323;28;21108;-67
2024/03/11 04:42:49;;;;;;;6.87;1.40;;;4.80;99.90;;;;;;5046324;28;20521;-67
2024/03/11 04:45:17;;;;;;;7.90;1.50;;;4.80;99.90;;;;;;5046894;28;20459;-67
2024/03/11 04:47:45;;;;;;;8.20;1.50;;;4.80;99.90;;;;;;5054701;28;20474;-67
2024/03/11 04:50:14;;;;;;;7.10;1.60;;;4.90;99.90;;;;;;5050876;28;20471;-66
2024/03/11 04:52:43;;;;;;;7.60;1.70;;;4.90;99.90;;;;;;5039831;28;20529;-67
2024/03/11 04:55:11;;;;;;;7.70;1.97;;;4.70;99.90;;;;;;5046490;28;20675;-67
2024/03/11 04:57:39;;;;;;;7.70;2.07;;;4.70;99.90;;;;;;5048698;28;20893;-67
2024/03/11 05:00:08;;;;;;;9.60;2.60;;;4.60;99.90;;;;;;5045971;28;20858;-66
2024/03/11 05:02:38;;;;;;;9.50;2.27;;;4.50;99.90;;;;;;5048987;28;20471;-67
2024/03/11 05:05:09;;;;;;;8.93;3.30;;;4.50;99.90;;;;;;5050655;28;20446;-67
2024/03/11 05:07:37;;;;;;;10.40;3.37;;;4.40;99.90;;;;;;5050304;28;20931;-67
2024/03/11 05:10:09;;;;;;;8.40;3.27;;;4.40;99.90;;;;;;5049542;28;21094;-67
2024/03/11 05:12:36;;;;;;;12.63;3.53;;;4.40;99.90;;;;;;5049173;28;20474;-67
2024/03/11 05:15:06;;;;;;;9.40;3.53;;;4.30;99.90;;;;;;5050236;28;20477;-67
2024/03/11 05:17:34;;;;;;;9.20;2.93;;;4.30;99.90;;;;;;5045053;28;20522;-67
2024/03/11 05:20:06;;;;;;;9.70;4.00;;;4.40;99.90;;;;;;5050153;28;20469;-66
2024/03/11 05:22:34;;;;;;;9.90;3.80;;;4.40;99.90;;;;;;5042833;28;20457;-67
2024/03/11 05:25:05;;;;;;;10.77;3.73;;;4.40;99.90;;;;;;5048868;28;20474;-67
2024/03/11 05:27:37;;;;;;;8.60;2.90;;;4.50;99.90;;;;;;5049742;28;20492;-67
2024/03/11 05:30:05;;;;;;;8.70;3.23;;;4.40;99.90;;;;;;5050588;28;20483;-67
2024/03/11 05:32:33;;;;;;;8.33;2.93;;;4.50;99.90;;;;;;5055076;28;20990;-67
2024/03/11 05:35:02;;;;;;;9.37;2.90;;;4.50;99.90;;;;;;5049679;28;20446;-67
2024/03/11 05:37:32;;;;;;;9.97;3.50;;;4.50;99.90;;;;;;5050721;28;21047;-67
2024/03/11 05:40:01;;;;;;;8.83;2.90;;;4.50;99.90;;;;;;5050526;28;20471;-68
2024/03/11 05:42:29;;;;;;;8.20;3.07;;;4.60;99.90;;;;;;5053147;28;20953;-69
2024/03/11 05:44:59;;;;;;;10.67;3.50;;;4.60;99.90;;;;;;5051434;28;20506;-66
2024/03/11 05:47:27;;;;;;;9.70;3.53;;;4.40;99.90;;;;;;5049994;28;20498;-67
2024/03/11 05:49:55;;;;;;;10.37;3.40;;;4.40;99.90;;;;;;5049872;28;20474;-66
2024/03/11 05:52:25;;;;;;;8.50;2.47;;;4.30;99.90;;;;;;5049786;28;20450;-66
2024/03/11 05:54:54;;;;;;;10.63;2.40;;;4.30;99.90;;;;;;5050192;28;20481;-67
2024/03/11 05:57:25;;;;;;;8.93;2.50;;;4.30;99.90;;;;;;5050144;28;20529;-67
2024/03/11 05:59:53;;;;;;;8.40;2.50;;;4.40;99.90;;;;;;5057448;28;20570;-68
2024/03/11 06:02:24;;;;;;;9.90;2.43;;;4.40;99.90;;;;;;5049481;28;21007;-66
2024/03/11 06:04:52;;;;;;;8.53;2.50;;;4.50;99.90;;;;;;5049620;28;20500;-67
2024/03/11 06:07:23;;;;;;;7.57;2.10;;;4.50;99.90;;;;;;5048920;28;20437;-67
2024/03/11 06:09:52;;;;;;;7.80;2.27;;;4.60;99.90;;;;;;5049422;28;20466;-66
2024/03/11 06:12:20;;;;;;;8.33;2.50;;;4.60;99.90;;;;;;5049505;28;20501;-66
2024/03/11 06:14:49;;;;;;;9.00;2.13;;;4.50;99.90;;;;;;5051004;28;20469;-66
2024/03/11 06:17:18;;;;;;;7.43;1.67;;;4.40;99.90;;;;;;5049562;28;20485;-68
2024/03/11 06:19:48;;;;;;;8.20;1.83;;;4.50;99.90;;;;;;5049314;28;20501;-66
2024/03/11 06:22:16;;;;;;;9.53;2.17;;;4.70;99.90;;;;;;5053069;28;20532;-67
2024/03/11 06:24:45;;;;;;;8.17;1.83;;;4.70;99.90;;;;;;5049553;28;20449;-67
2024/03/11 06:27:14;;;;;;;7.80;2.27;;;4.70;99.90;;;;;;5048570;28;20936;-67
2024/03/11 06:29:42;;;;;;;8.97;2.43;;;4.70;99.90;;;;;;5049661;28;20483;-67
2024/03/11 06:32:11;;;;;;;8.93;2.23;;;4.80;99.90;;;;;;5047297;28;20509;-68
2024/03/11 06:34:40;;;;;;;8.80;2.13;;;4.80;99.90;;;;;;5048542;28;20457;-67
2024/03/11 06:37:10;;;;;;;10.00;2.00;;;4.90;99.90;;;;;;5048549;28;20491;-67
2024/03/11 06:39:39;;;;;;;8.07;2.37;;;4.90;99.90;;;;;;5048493;28;20479;-66
2024/03/11 06:42:08;;;;;;;8.90;1.97;;;4.90;99.90;;;;;;5048887;28;20892;-67
2024/03/11 06:44:37;;;;;;;7.53;1.70;;;5.00;99.90;;;;;;5049348;28;20813;-66
2024/03/11 06:47:09;;;;;;;7.40;1.80;;;5.00;99.90;;;;;;5051804;28;20442;-69
2024/03/11 06:49:37;;;;;;;8.07;2.07;;;5.20;99.90;;;;;;5049430;28;20539;-67
2024/03/11 06:52:06;;;;;;;8.70;2.20;;;5.30;99.90;;;;;;5048742;28;20455;-67
2024/03/11 06:54:36;;;;;;;10.10;1.93;;;5.30;99.90;;;;;;5049071;28;21006;-68
2024/03/11 06:57:05;;;;;;;8.07;2.03;;;5.50;99.90;;;;;;5048535;28;20513;-67
2024/03/11 06:59:33;;;;;;;8.60;1.90;;;5.70;99.90;;;;;;5048951;28;20464;-67
2024/03/11 07:02:01;;;;;;;7.63;1.70;;;5.80;99.90;;;;;;5047846;28;20541;-68
2024/03/11 07:04:31;;;;;;;9.37;1.53;;;6.00;99.90;;;;;;5048946;28;20459;-67
2024/03/11 07:06:59;;;;;;;9.50;1.93;;;6.10;99.90;;;;;;5048988;28;20542;-67
2024/03/11 07:09:28;;;;;;;8.80;2.00;;;6.20;99.90;;;;;;5048788;28;20986;-68
2024/03/11 07:11:59;;;;;;;8.10;1.73;;;6.50;99.90;;;;;;5048504;28;20870;-68
2024/03/11 07:14:27;;;;;;;7.37;1.83;;;6.80;99.90;;;;;;5048804;28;20487;-68
2024/03/11 07:16:57;;;;;;;7.53;2.07;;;6.90;99.90;;;;;;5049681;28;21252;-68
2024/03/11 07:19:29;;;;;;;7.47;1.77;;;7.00;99.90;;;;;;5048888;28;20460;-67
2024/03/11 07:21:57;;;;;;;8.33;1.67;;;7.20;99.90;;;;;;5048330;28;21066;-68
2024/03/11 07:24:25;;;;;;;8.00;1.60;;;7.30;99.90;;;;;;5049039;28;20539;-68
2024/03/11 07:26:55;;;;;;;7.97;2.00;;;7.30;99.90;;;;;;5049046;28;21019;-68
2024/03/11 07:29:24;;;;;;;8.03;1.83;;;7.30;99.90;;;;;;5048946;28;20468;-68
2024/03/11 07:31:53;;;;;;;7.23;1.40;;;7.30;99.90;;;;;;5055565;28;20513;-68
2024/03/11 07:34:23;;;;;;;7.20;1.60;;;7.30;99.90;;;;;;5048818;28;20460;-68
2024/03/11 07:36:55;;;;;;;8.97;1.47;;;7.40;99.90;;;;;;5048610;28;20480;-68
2024/03/11 07:39:24;;;;;;;7.30;1.50;;;7.40;99.90;;;;;;5048424;28;20464;-66
2024/03/11 07:41:52;;;;;;;6.27;0.87;;;7.50;99.90;;;;;;5047991;28;20448;-68
2024/03/11 07:44:21;;;;;;;6.20;0.97;;;7.50;99.90;;;;;;5048167;28;20462;-67
2024/03/11 07:46:50;;;;;;;7.23;1.00;;;7.60;99.90;;;;;;5046292;28;20456;-67
2024/03/11 07:49:18;;;;;;;6.50;1.13;;;7.60;99.90;;;;;;5048134;28;20560;-67
2024/03/11 07:51:46;;;;;;;7.90;0.90;;;7.70;99.90;;;;;;5046290;28;20910;-67
2024/03/11 07:54:14;;;;;;;6.60;1.00;;;7.70;99.90;;;;;;5051666;28;20494;-67
2024/03/11 07:56:42;;;;;;;6.40;0.90;;;7.90;99.90;;;;;;5058047;28;20912;-67
2024/03/11 07:59:10;;;;;;;6.73;1.17;;;7.90;99.90;;;;;;5056923;28;20436;-67
2024/03/11 08:01:39;;;;;;;6.63;1.10;;;7.90;99.90;;;;;;5055324;28;20453;-68
2024/03/11 08:04:09;;;;;;;7.40;1.20;;;8.00;99.90;;;;;;5052010;28;20480;-67
2024/03/11 08:06:37;;;;;;;7.50;1.10;;;8.10;99.90;;;;;;5058476;28;20502;-67
2024/03/11 08:09:07;;;;;;;6.80;1.10;;;8.20;99.90;;;;;;5047774;28;20500;-67
2024/03/11 08:11:35;;;;;;;6.87;1.17;;;8.30;99.90;;;;;;5047032;28;20829;-68
2024/03/11 08:14:04;;;;;;;6.83;1.10;;;8.30;99.90;;;;;;5047992;28;20461;-67
2024/03/11 08:16:32;;;;;;;7.57;1.47;;;8.50;99.90;;;;;;5047468;28;20480;-68
2024/03/11 08:19:00;;;;;;;7.03;1.80;;;8.50;99.90;;;;;;5048161;28;20490;-68
2024/03/11 08:21:29;;;;;;;7.47;1.33;;;8.60;99.90;;;;;;5047634;28;20891;-67
2024/03/11 08:23:57;;;;;;;8.33;2.23;;;8.60;99.90;;;;;;5047864;28;20489;-68
2024/03/11 08:26:28;;;;;;;8.07;1.30;;;8.80;99.90;;;;;;5047842;28;20462;-68
2024/03/11 08:28:56;;;;;;;7.97;1.20;;;8.80;99.90;;;;;;5047981;28;20974;-67
2024/03/11 08:31:25;;;;;;;6.80;1.20;;;9.00;99.90;;;;;;5049729;28;20457;-66
2024/03/11 08:33:54;;;;;;;6.10;0.80;;;9.10;99.90;;;;;;5053223;28;20542;-68
2024/03/11 08:36:24;;;;;;;7.90;1.07;;;9.30;99.90;;;;;;5052082;28;20461;-68
2024/03/11 08:38:54;;;;;;;6.33;0.90;;;9.50;99.90;;;;;;5052229;28;20445;-68
2024/03/11 08:41:23;;;;;;;7.00;1.10;;;9.50;99.90;;;;;;5051394;28;20538;-67
2024/03/11 08:43:52;;;;;;;6.23;0.80;;;9.70;99.90;;;;;;5051527;28;20459;-65
2024/03/11 08:46:20;;;;;;;7.13;1.13;;;9.90;99.90;;;;;;5051494;28;20452;-65
2024/03/11 08:48:49;;;;;;;6.90;1.00;;;10.00;99.90;;;;;;5051471;28;20455;-67
2024/03/11 08:51:17;;;;;;;6.93;1.00;;;10.20;99.90;;;;;;5052118;28;20482;-66
2024/03/11 08:53:45;;;;;;;7.20;0.83;;;10.30;99.90;;;;;;5051601;28;20502;-66
2024/03/11 08:56:14;;;;;;;7.27;1.23;;;10.40;99.90;;;;;;5051504;28;20515;-66
2024/03/11 08:58:42;;;;;;;6.80;1.00;;;10.70;99.90;;;;;;5051297;28;20543;-66
2024/03/11 09:01:11;;;;;;;6.43;1.00;;;10.90;99.90;;;;;;5051248;28;20530;-66
2024/03/11 09:03:39;;;;;;;7.07;1.00;;;11.00;99.90;;;;;;5051230;28;20448;-66
2024/03/11 09:06:10;;;;;;;7.07;1.40;;;11.10;99.90;;;;;;5060463;28;20483;-66
2024/03/11 09:08:38;;;;;;;8.80;1.17;;;11.40;99.90;;;;;;5051328;28;20446;-66
2024/03/11 09:11:06;;;;;;;6.60;1.00;;;11.80;99.90;;;;;;5050776;28;20475;-66
2024/03/11 09:13:35;;;;;;;6.80;1.00;;;12.00;99.90;;;;;;5050965;28;20451;-66
2024/03/11 09:16:05;;;;;;;7.97;1.13;;;12.40;99.90;;;;;;5051008;28;20446;-66
2024/03/11 09:18:33;;;;;;;7.53;0.80;;;12.60;99.90;;;;;;5051018;28;20487;-67
2024/03/11 09:21:03;;;;;;;7.00;0.90;;;13.00;99.90;;;;;;5051635;28;20586;-66
2024/03/11 09:23:31;;;;;;;6.47;0.90;;;13.40;99.90;;;;;;5056549;28;21070;-66
2024/03/11 09:26:01;;;;;;;6.67;0.90;;;13.70;99.40;;;;;;5051207;28;20829;-66
2024/03/11 09:28:29;;;;;;;6.93;0.80;;;13.90;97.40;;;;;;5051253;28;20452;-66
2024/03/11 09:30:59;;;;;;;7.73;0.90;;;13.90;94.60;;;;;;5050992;28;20510;-66
2024/03/11 09:33:27;;;;;;;6.87;1.10;;;13.90;95.30;;;;;;5051006;28;20493;-66
2024/03/11 09:35:58;;;;;;;6.60;0.80;;;14.00;96.20;;;;;;5050739;28;20482;-66
2024/03/11 09:38:26;;;;;;;6.30;0.80;;;14.20;95.00;;;;;;5060041;28;20572;-66
2024/03/11 09:40:54;;;;;;;6.33;0.70;;;14.30;94.00;;;;;;5050466;28;20479;-66
2024/03/11 09:43:23;;;;;;;6.60;0.93;;;14.50;93.60;;;;;;5049431;28;20448;-66
2024/03/11 09:45:51;;;;;;;8.00;1.00;;;14.70;92.70;;;;;;5050704;28;20505;-66
2024/03/11 09:48:23;;;;;;;7.27;1.00;;;15.00;91.70;;;;;;5050423;28;20452;-66
2024/03/11 09:50:54;;;;;;;6.50;0.70;;;15.10;90.10;;;;;;5050380;28;20472;-66
2024/03/11 09:53:25;;;;;;;6.30;0.80;;;15.10;88.00;;;;;;5051549;28;20833;-66
2024/03/11 09:55:54;;;;;;;7.47;0.97;;;15.30;90.20;;;;;;5050255;28;20459;-66
2024/03/11 09:58:23;;;;;;;7.07;0.70;;;15.70;88.70;;;;;;5050204;28;20483;-66
2024/03/11 10:00:55;;;;;;;6.50;0.60;;;16.00;84.10;;;;;;5049810;28;20479;-66
2024/03/11 10:03:27;;;;;;;6.70;0.60;;;16.40;80.90;;;;;;5049983;28;21075;-66
2024/03/11 10:05:56;;;;;;;6.10;0.60;;;17.10;77.10;;;;;;5050348;28;20843;-66
2024/03/11 10:08:26;;;;;;;7.00;0.63;;;17.60;72.10;;;;;;5051378;28;20544;-66
2024/03/11 10:11:15;;;;;;;6.07;0.70;;;18.20;71.10;;;;;;5049458;28;20472;-66
2024/03/11 10:13:43;;;;;;;6.00;0.50;;;18.40;73.00;;;;;;5049916;28;20476;-66
2024/03/11 10:16:17;;;;;;;6.63;0.67;;;18.80;66.20;;;;;;5050140;28;20448;-66
2024/03/11 10:19:00;;;;;;;6.47;0.70;;;19.30;65.60;;;;;;5049925;28;20509;-67
2024/03/11 10:21:31;;;;;;;7.57;0.60;;;18.10;61.90;;;;;;5049408;28;20439;-67
2024/03/11 10:24:00;;;;;;;7.40;0.67;;;16.70;66.70;;;;;;5049739;28;20873;-67
2024/03/11 10:26:30;;;;;;;5.93;0.60;;;15.50;66.70;;;;;;5054802;28;20878;-66
2024/03/11 10:29:00;;;;;;;6.23;0.83;;;14.30;70.50;;;;;;5049528;28;20538;-67
2024/03/11 10:31:31;;;;;;;6.40;0.67;;;13.40;71.60;;;;;;5049364;28;20530;-67
2024/03/11 10:34:11;;;;;;;6.43;0.63;;;12.70;75.80;;;;;;5049888;28;20454;-67
2024/03/11 10:36:42;;;;;;;7.80;0.60;;;12.30;77.30;;;;;;5049705;28;20954;-68
2024/03/11 10:39:17;;;;;;;6.20;0.70;;;12.10;78.40;;;;;;5049648;28;20486;-66
2024/03/11 10:41:49;;;;;;;6.70;0.87;;;12.40;79.10;;;;;;5050328;28;20459;-66
2024/03/11 10:44:23;;;;;;;6.00;0.53;;;12.80;77.60;;;;;;5049686;28;20535;-67
2024/03/11 10:46:51;;;;;;;6.60;0.83;;;12.70;78.40;;;;;;5049330;28;20538;-66
2024/03/11 10:49:21;;;;;;;6.30;0.70;;;12.70;77.80;;;;;;5049564;28;20467;-67
2024/03/11 10:51:49;;;;;;;5.80;0.50;;;12.80;77.40;;;;;;5049009;28;20447;-65
2024/03/11 10:54:23;;;;;;;6.03;0.70;;;13.90;79.70;;;;;;5048917;28;20474;-67
2024/03/11 10:56:55;;;;;;;6.10;0.60;;;15.20;74.30;;;;;;5050397;28;20456;-67
2024/03/11 10:59:29;;;;;;;6.80;0.70;;;16.20;66.90;;;;;;5049068;28;20567;-67
2024/03/11 11:01:58;;;;;;;7.30;0.60;;;16.90;65.20;;;;;;5048647;28;20452;-67
2024/03/11 11:04:29;;;;;;;6.87;0.50;;;17.40;64.40;;;;;;5049146;28;20958;-67
2024/03/11 11:06:59;;;;;;;9.40;0.90;;;18.10;63.20;;;;;;5049002;28;20459;-66
2024/03/11 11:09:28;;;;;;;6.50;0.70;;;18.80;58.00;;;;;;5049060;28;20495;-67
2024/03/11 11:11:57;;;;;;;5.80;0.50;;;18.20;58.00;;;;;;5048365;28;20844;-67
2024/03/11 11:14:27;;;;;;;6.40;0.70;;;18.10;58.40;;;;;;5050087;28;20464;-67
2024/03/11 11:16:58;;;;;;;7.17;0.80;;;18.70;57.60;;;;;;5049027;28;20451;-67
2024/03/11 11:19:32;;;;;;;7.00;0.70;;;19.00;55.10;;;;;;5048610;28;21302;-66
2024/03/11 11:22:02;;;;;;;6.00;0.60;;;19.10;56.10;;;;;;5048459;28;20452;-67
2024/03/11 11:24:36;;;;;;;6.40;0.50;;;19.80;53.20;;;;;;5048664;28;20452;-67
2024/03/11 11:27:06;;;;;;;6.47;0.60;;;20.00;52.50;;;;;;5048435;28;20471;-67
2024/03/11 11:29:35;;;;;;;6.33;0.60;;;19.60;52.10;;;;;;5049944;28;20989;-67
2024/03/11 11:32:06;;;;;;;6.00;0.57;;;19.30;52.90;;;;;;5048325;28;20547;-67
2024/03/11 11:34:53;;;;;;;6.10;0.60;;;19.20;52.60;;;;;;5048821;28;20520;-67
2024/03/11 11:37:36;;;;;;;8.57;0.73;;;19.60;53.30;;;;;;5047667;28;20480;-67
2024/03/11 11:40:29;;;;;;;8.63;0.80;;;19.20;51.70;;;;;;5048571;28;20495;-67
2024/03/11 11:42:58;;;;;;;5.80;0.50;;;19.00;52.60;;;;;;5048335;28;20452;-65
2024/03/11 11:45:54;;;;;;;6.00;0.70;;;18.30;52.70;;;;;;5049768;28;21173;-66
2024/03/11 11:48:28;;;;;;;6.30;0.80;;;17.70;54.70;;;;;;5048609;28;20455;-66
2024/03/11 11:51:01;;;;;;;7.17;0.73;;;17.20;55.40;;;;;;5047931;28;20475;-66
2024/03/11 11:53:32;;;;;;;6.90;1.03;;;16.80;56.50;;;;;;5048148;28;20447;-66
2024/03/11 11:56:04;;;;;;;6.20;0.60;;;16.30;57.30;;;;;;5048475;28;20446;-66
2024/03/11 11:58:32;;;;;;;6.10;0.63;;;15.80;57.30;;;;;;5048406;28;20490;-66
2024/03/11 12:01:02;;;;;;;6.80;0.73;;;16.20;58.20;;;;;;5048993;28;20479;-66
2024/03/11 12:03:32;;;;;;;6.10;0.63;;;16.70;57.40;;;;;;5048243;28;20832;-66
2024/03/11 12:06:03;;;;;;;8.00;0.60;;;16.90;56.90;;;;;;5047284;28;20451;-67
2024/03/11 12:08:32;;;;;;;5.90;0.50;;;17.20;57.20;;;;;;5048179;28;20452;-67
2024/03/11 12:11:10;;;;;;;6.03;0.47;;;17.20;55.70;;;;;;5047929;28;20562;-67
2024/03/11 12:13:40;;;;;;;6.40;0.40;;;16.70;56.50;;;;;;5048102;28;20498;-67
2024/03/11 12:16:10;;;;;;;6.10;0.60;;;15.80;55.60;;;;;;5048973;28;20458;-67
2024/03/11 12:18:42;;;;;;;6.20;0.47;;;15.50;56.80;;;;;;5053592;28;20579;-66
2024/03/11 12:21:14;;;;;;;5.97;0.60;;;15.30;57.30;;;;;;5047780;28;20474;-67
2024/03/11 12:23:42;;;;;;;6.10;0.60;;;14.90;58.00;;;;;;5047782;28;20501;-66
2024/03/11 12:26:13;;;;;;;6.87;0.70;;;14.50;58.70;;;;;;5047847;28;20489;-66
2024/03/11 12:29:03;;;;;;;7.90;0.80;;;14.20;60.20;;;;;;5047953;28;20440;-66
2024/03/11 12:31:33;;;;;;;5.80;0.40;;;14.00;59.40;;;;;;5047486;28;20475;-67
2024/03/11 12:34:06;;;;;;;7.60;0.60;;;14.00;58.60;;;;;;5048833;28;20603;-68
2024/03/11 12:36:37;;;;;;;5.90;0.50;;;13.90;60.70;;;;;;5047363;28;20447;-67
2024/03/11 12:39:16;;;;;;;5.93;0.57;;;13.80;63.50;;;;;;5046904;28;20860;-66
2024/03/11 12:41:44;;;;;;;6.03;0.60;;;13.60;63.90;;;;;;5046507;28;20959;-66
2024/03/11 12:44:13;;;;;;;7.17;0.70;;;13.60;66.30;;;;;;5047222;28;20469;-67
2024/03/11 12:46:43;;;;;;;6.10;0.50;;;13.70;66.80;;;;;;5046875;28;20525;-67
2024/03/11 12:49:12;;;;;;;5.83;0.40;;;13.80;64.30;;;;;;5048070;28;20448;-66
2024/03/11 12:51:42;;;;;;;6.40;0.63;;;13.90;64.50;;;;;;5046492;28;20494;-67
2024/03/11 12:54:14;;;;;;;5.73;0.50;;;14.00;64.60;;;;;;5046710;28;20905;-68
2024/03/11 12:56:42;;;;;;;6.20;0.53;;;14.20;64.20;;;;;;5046987;28;21120;-67
2024/03/11 12:59:13;;;;;;;6.37;0.70;;;14.30;62.50;;;;;;5046868;28;20483;-67
2024/03/11 13:01:43;;;;;;;5.93;0.60;;;14.40;62.50;;;;;;5046475;28;20478;-67
2024/03/11 13:04:19;;;;;;;6.80;0.73;;;14.40;62.40;;;;;;5047999;28;20566;-67
2024/03/11 13:06:47;;;;;;;7.40;0.60;;;14.30;62.60;;;;;;5047073;28;20559;-67